Terminal Aerodrome Forecast
Issued by NWS

Home | Current Version | Previous Version | Text Only | Print | Product List | Glossary On
Versions: 1 2 3 4 5 6 7 8 9 10 11 12 13 14 15 16 17 18 19
000
FTUS44 KLZK 300529
TAFHRO
TAF
KHRO 300529Z 3006/0106 12009KT P6SM -RA BKN015 OVC050
      TEMPO 3006/3010 3SM -TSRA BR BKN008CB OVC025
     FM301000 11008KT 5SM -RA BR BKN008 OVC025
      TEMPO 3010/3014 2SM -TSRA BR BKN005CB OVC025
     FM301600 19010KT 6SM BR VCSH BKN008 OVC015=

USA.gov is the U.S. government's official web portal to all federal, state and local government web resources and services.